Time;durP1;ratioP1;P1;durP2;ratioP2;P2;SDS_P1;SDS_P2;PMS_P1;PMS_P2;Temp;Humidity;BMP_temperature;BMP_pressure;BME280_temperature;BME280_humidity;BME280_pressure;Samples;Min_cycle;Max_cycle;Signal;HPM_P1;HPM_P2
2023/08/27 00:02:15;;;;;;;4.20;2.40;;;;;;;;;;5044161;28;20175;-78
2023/08/27 00:04:42;;;;;;;4.10;2.90;;;;;;;;;;5045779;28;20186;-78
2023/08/27 00:07:09;;;;;;;3.93;2.60;;;;;;;;;;5045276;28;20209;-78
2023/08/27 00:09:35;;;;;;;5.60;2.93;;;;;;;;;;5042582;28;20205;-79
2023/08/27 00:12:01;;;;;;;3.13;2.47;;;;;;;;;;5042794;28;20181;-78
2023/08/27 00:14:28;;;;;;;6.13;2.80;;;;;;;;;;5046862;28;20209;-79
2023/08/27 00:16:55;;;;;;;3.87;2.30;;;;;;;;;;5048884;28;20223;-78
2023/08/27 00:19:21;;;;;;;5.40;2.83;;;;;;;;;;5048783;28;20178;-79
2023/08/27 00:21:48;;;;;;;4.20;2.90;;;;;;;;;;5050073;28;20188;-78
2023/08/27 00:24:14;;;;;;;3.93;2.90;;;;;;;;;;5045503;28;20556;-78
2023/08/27 00:26:40;;;;;;;3.80;2.80;;;;;;;;;;5042224;28;20578;-79
2023/08/27 00:29:07;;;;;;;6.87;3.20;;;;;;;;;;5047540;28;20616;-78
2023/08/27 00:31:33;;;;;;;6.17;3.27;;;;;;;;;;5047192;28;20182;-78
2023/08/27 00:33:59;;;;;;;6.27;3.10;;;;;;;;;;5044267;28;20238;-78
2023/08/27 00:36:25;;;;;;;6.00;3.27;;;;;;;;;;5041819;28;20650;-79
2023/08/27 00:38:51;;;;;;;6.27;3.40;;;;;;;;;;5049491;28;20207;-79
2023/08/27 00:41:17;;;;;;;5.17;3.50;;;;;;;;;;5044170;28;20178;-79
2023/08/27 00:43:43;;;;;;;4.17;2.73;;;;;;;;;;5063683;28;20209;-79
2023/08/27 00:46:10;;;;;;;4.63;3.23;;;;;;;;;;5040900;28;20178;-80
2023/08/27 00:48:36;;;;;;;5.47;3.10;;;;;;;;;;5042198;28;20636;-79
2023/08/27 00:51:03;;;;;;;6.33;3.23;;;;;;;;;;5041581;28;20178;-78
2023/08/27 00:53:29;;;;;;;4.63;2.97;;;;;;;;;;5046956;28;20201;-78
2023/08/27 00:55:55;;;;;;;5.07;2.93;;;;;;;;;;5048295;28;20209;-78
2023/08/27 00:58:21;;;;;;;4.23;3.10;;;;;;;;;;5051501;28;20209;-79
2023/08/27 01:00:47;;;;;;;2.97;2.57;;;;;;;;;;5048843;28;20182;-79
2023/08/27 01:03:14;;;;;;;5.70;3.40;;;;;;;;;;5048412;28;20205;-79
2023/08/27 01:05:40;;;;;;;4.80;2.83;;;;;;;;;;5055599;28;20200;-79
2023/08/27 01:08:21;;;;;;;3.07;2.80;;;;;;;;;;5045351;28;20209;-79
2023/08/27 01:10:57;;;;;;;4.87;2.83;;;;;;;;;;5038114;28;20179;-78
2023/08/27 01:13:46;;;;;;;4.50;3.30;;;;;;;;;;5030696;28;20225;-79
2023/08/27 01:16:14;;;;;;;4.53;2.87;;;;;;;;;;5034769;28;20206;-78
2023/08/27 01:18:41;;;;;;;4.20;3.00;;;;;;;;;;5042715;28;20202;-79
2023/08/27 01:21:20;;;;;;;4.27;3.00;;;;;;;;;;5046732;28;20186;-78
2023/08/27 01:23:47;;;;;;;8.40;3.43;;;;;;;;;;5042490;28;20193;-78
2023/08/27 01:26:17;;;;;;;5.40;2.80;;;;;;;;;;5048071;28;20186;-78
2023/08/27 01:28:48;;;;;;;3.13;2.70;;;;;;;;;;5055301;22;20632;-76
2023/08/27 01:31:17;;;;;;;5.37;2.90;;;;;;;;;;5040101;28;20672;-76
2023/08/27 01:33:46;;;;;;;4.37;2.87;;;;;;;;;;5020037;28;20205;-76
2023/08/27 01:36:13;;;;;;;5.00;2.80;;;;;;;;;;5038712;28;20742;-76
2023/08/27 01:38:39;;;;;;;7.67;3.17;;;;;;;;;;5028346;28;20597;-76
2023/08/27 01:41:07;;;;;;;3.20;2.70;;;;;;;;;;5026825;28;20182;-76
2023/08/27 01:43:33;;;;;;;6.37;2.80;;;;;;;;;;5026481;28;20266;-76
2023/08/27 01:46:00;;;;;;;4.83;2.80;;;;;;;;;;5026505;28;20195;-76
2023/08/27 01:48:26;;;;;;;4.70;3.03;;;;;;;;;;5020395;28;20212;-75
2023/08/27 01:50:52;;;;;;;5.03;3.00;;;;;;;;;;5025347;28;20214;-75
2023/08/27 01:53:18;;;;;;;4.50;2.67;;;;;;;;;;5023046;28;20887;-76
2023/08/27 01:55:44;;;;;;;5.23;3.00;;;;;;;;;;5006227;28;20218;-76
2023/08/27 01:58:12;;;;;;;4.77;3.20;;;;;;;;;;5006064;28;20689;-76
2023/08/27 02:00:38;;;;;;;6.40;3.37;;;;;;;;;;5025148;28;20601;-76
2023/08/27 02:03:05;;;;;;;7.80;3.00;;;;;;;;;;5024235;28;20224;-76
2023/08/27 02:05:31;;;;;;;5.00;2.83;;;;;;;;;;5022189;28;20197;-76
2023/08/27 02:07:58;;;;;;;3.70;2.70;;;;;;;;;;5008974;28;20202;-76
2023/08/27 02:10:24;;;;;;;3.87;2.80;;;;;;;;;;5020071;28;20187;-76
2023/08/27 02:12:51;;;;;;;3.13;2.83;;;;;;;;;;5022248;28;20749;-76
2023/08/27 02:15:17;;;;;;;4.43;2.93;;;;;;;;;;5026005;28;20216;-76
2023/08/27 02:17:43;;;;;;;4.07;2.80;;;;;;;;;;5006888;28;20278;-76
2023/08/27 02:20:10;;;;;;;5.87;3.33;;;;;;;;;;5024028;28;20642;-76
2023/08/27 02:22:36;;;;;;;4.70;3.13;;;;;;;;;;5027564;28;20178;-76
2023/08/27 02:25:03;;;;;;;4.07;3.30;;;;;;;;;;5008231;28;20595;-77
2023/08/27 02:27:29;;;;;;;3.83;2.97;;;;;;;;;;5020537;28;20211;-77
2023/08/27 02:29:55;;;;;;;4.80;2.87;;;;;;;;;;5029147;28;20274;-76
2023/08/27 02:32:23;;;;;;;7.60;3.27;;;;;;;;;;5027590;28;20179;-76
2023/08/27 02:34:50;;;;;;;5.50;3.10;;;;;;;;;;5027204;28;20206;-76
2023/08/27 02:37:16;;;;;;;3.30;3.00;;;;;;;;;;5023159;28;20234;-76
2023/08/27 02:39:42;;;;;;;3.87;2.80;;;;;;;;;;5022497;28;20177;-76
2023/08/27 02:42:08;;;;;;;4.17;3.30;;;;;;;;;;5023558;28;20235;-76
2023/08/27 02:44:34;;;;;;;4.73;2.97;;;;;;;;;;5029381;28;20248;-76
2023/08/27 02:47:01;;;;;;;3.70;2.77;;;;;;;;;;5027218;28;20206;-76
2023/08/27 02:49:27;;;;;;;4.10;3.03;;;;;;;;;;5026952;28;20704;-76
2023/08/27 02:51:54;;;;;;;4.20;2.97;;;;;;;;;;5025191;28;20193;-77
2023/08/27 02:54:20;;;;;;;5.23;2.93;;;;;;;;;;5023459;28;20627;-76
2023/08/27 02:56:46;;;;;;;4.57;3.23;;;;;;;;;;5025271;28;20617;-76
2023/08/27 02:59:13;;;;;;;4.87;3.23;;;;;;;;;;5028333;28;20183;-76
2023/08/27 03:01:39;;;;;;;3.30;2.90;;;;;;;;;;5018955;28;20188;-76
2023/08/27 03:04:05;;;;;;;4.37;3.10;;;;;;;;;;5024867;28;20220;-76
2023/08/27 03:06:31;;;;;;;4.33;2.93;;;;;;;;;;5023907;28;20554;-76
2023/08/27 03:08:58;;;;;;;3.63;3.03;;;;;;;;;;5024160;28;20226;-76
2023/08/27 03:11:24;;;;;;;3.27;2.97;;;;;;;;;;5021073;28;20614;-77
2023/08/27 03:13:50;;;;;;;3.87;2.93;;;;;;;;;;5026811;28;20214;-75
2023/08/27 03:16:16;;;;;;;4.67;3.23;;;;;;;;;;5025300;28;20182;-76
2023/08/27 03:18:43;;;;;;;7.00;3.40;;;;;;;;;;5028266;28;20203;-76
2023/08/27 03:21:09;;;;;;;6.70;3.40;;;;;;;;;;5023617;28;20529;-76
2023/08/27 03:23:35;;;;;;;6.60;3.20;;;;;;;;;;5027909;28;20266;-76
2023/08/27 03:26:02;;;;;;;5.57;3.50;;;;;;;;;;5027732;28;20275;-76
2023/08/27 03:28:28;;;;;;;6.27;3.53;;;;;;;;;;5022560;28;20273;-76
2023/08/27 03:30:54;;;;;;;4.13;3.00;;;;;;;;;;5021990;28;20225;-76
2023/08/27 03:33:20;;;;;;;5.03;3.23;;;;;;;;;;5021642;28;20277;-76
2023/08/27 03:35:54;;;;;;;5.57;3.20;;;;;;;;;;5026118;28;20214;-76
2023/08/27 03:38:21;;;;;;;5.23;3.30;;;;;;;;;;5025613;28;20209;-77
2023/08/27 03:40:48;;;;;;;3.53;2.90;;;;;;;;;;5021410;28;20697;-76
2023/08/27 03:43:15;;;;;;;4.97;3.20;;;;;;;;;;5021520;28;20217;-76
2023/08/27 03:45:41;;;;;;;6.57;3.27;;;;;;;;;;5019580;28;20194;-77
2023/08/27 03:48:07;;;;;;;3.80;3.10;;;;;;;;;;5021613;28;20969;-76
2023/08/27 03:50:34;;;;;;;8.60;3.50;;;;;;;;;;5006328;28;20202;-76
2023/08/27 03:53:01;;;;;;;4.77;3.50;;;;;;;;;;5024043;28;20192;-76
2023/08/27 03:55:27;;;;;;;4.70;3.47;;;;;;;;;;5024868;28;20309;-76
2023/08/27 03:57:53;;;;;;;4.40;3.30;;;;;;;;;;5024628;28;20230;-76
2023/08/27 04:00:19;;;;;;;6.23;3.27;;;;;;;;;;5026775;28;20257;-76
2023/08/27 04:02:45;;;;;;;4.73;3.20;;;;;;;;;;5026368;28;20187;-76
2023/08/27 04:05:12;;;;;;;4.03;3.33;;;;;;;;;;5024524;28;20244;-76
2023/08/27 04:07:38;;;;;;;7.77;3.30;;;;;;;;;;5024069;28;20206;-75
2023/08/27 04:10:04;;;;;;;3.37;3.07;;;;;;;;;;5024900;28;20178;-76
2023/08/27 04:12:34;;;;;;;4.17;3.03;;;;;;;;;;5024377;28;20298;-76
2023/08/27 04:15:00;;;;;;;5.40;3.23;;;;;;;;;;5025603;28;20203;-77
2023/08/27 04:17:26;;;;;;;3.50;3.20;;;;;;;;;;5021826;28;20210;-76
2023/08/27 04:19:53;;;;;;;4.80;3.27;;;;;;;;;;5020603;28;20182;-76
2023/08/27 04:22:19;;;;;;;4.83;3.17;;;;;;;;;;5016910;28;20236;-76
2023/08/27 04:24:45;;;;;;;5.33;3.23;;;;;;;;;;5006802;28;20685;-76
2023/08/27 04:27:11;;;;;;;6.10;3.40;;;;;;;;;;5028360;28;20293;-76
2023/08/27 04:29:37;;;;;;;5.50;3.53;;;;;;;;;;5010786;28;20190;-77
2023/08/27 04:32:03;;;;;;;5.17;3.50;;;;;;;;;;5024282;28;20245;-76
2023/08/27 04:34:30;;;;;;;4.43;3.23;;;;;;;;;;5026357;28;20276;-76
2023/08/27 04:36:56;;;;;;;5.30;3.33;;;;;;;;;;5027648;28;20178;-77
2023/08/27 04:39:22;;;;;;;3.47;3.00;;;;;;;;;;5029389;28;20221;-76
2023/08/27 04:41:50;;;;;;;4.33;3.10;;;;;;;;;;5025886;28;20707;-76
2023/08/27 04:44:16;;;;;;;5.97;3.30;;;;;;;;;;5025177;28;20516;-76
2023/08/27 04:46:42;;;;;;;3.97;3.17;;;;;;;;;;5028524;28;20217;-76
2023/08/27 04:49:09;;;;;;;5.40;3.30;;;;;;;;;;5025474;28;20221;-76
2023/08/27 04:51:35;;;;;;;5.07;3.30;;;;;;;;;;5027305;28;20252;-76
2023/08/27 04:54:02;;;;;;;4.33;3.20;;;;;;;;;;5024389;28;20213;-76
2023/08/27 04:56:28;;;;;;;3.23;2.97;;;;;;;;;;5025721;28;20175;-76
2023/08/27 04:58:55;;;;;;;4.50;3.07;;;;;;;;;;5025273;28;20594;-76
2023/08/27 05:01:21;;;;;;;6.27;3.20;;;;;;;;;;5010726;28;20762;-76
2023/08/27 05:03:48;;;;;;;4.17;3.40;;;;;;;;;;5026028;28;20320;-76
2023/08/27 05:06:14;;;;;;;4.67;3.10;;;;;;;;;;5028464;28;20189;-76
2023/08/27 05:08:42;;;;;;;5.63;3.50;;;;;;;;;;5028520;28;20228;-76
2023/08/27 05:11:09;;;;;;;4.23;3.23;;;;;;;;;;5007650;28;20707;-76
2023/08/27 05:13:40;;;;;;;4.77;3.23;;;;;;;;;;5028048;28;20253;-76
2023/08/27 05:16:06;;;;;;;4.63;3.20;;;;;;;;;;5022560;28;20207;-76
2023/08/27 05:18:33;;;;;;;4.30;3.10;;;;;;;;;;5013138;28;20221;-76
2023/08/27 05:20:59;;;;;;;4.17;3.10;;;;;;;;;;5008132;28;20657;-76
2023/08/27 05:23:26;;;;;;;4.43;3.10;;;;;;;;;;5012578;28;20205;-76
2023/08/27 05:25:52;;;;;;;7.73;3.50;;;;;;;;;;5027897;28;20627;-76
2023/08/27 05:28:19;;;;;;;4.23;3.13;;;;;;;;;;5023580;28;20233;-76
2023/08/27 05:30:45;;;;;;;6.00;3.57;;;;;;;;;;5006512;28;20184;-76
2023/08/27 05:33:11;;;;;;;5.97;3.50;;;;;;;;;;5028364;28;20182;-76
2023/08/27 05:35:37;;;;;;;4.77;3.37;;;;;;;;;;5029825;28;20960;-76
2023/08/27 05:38:04;;;;;;;4.23;3.40;;;;;;;;;;5028022;28;20214;-76
2023/08/27 05:40:30;;;;;;;5.50;3.33;;;;;;;;;;5026731;28;20185;-76
2023/08/27 05:42:57;;;;;;;4.50;3.53;;;;;;;;;;5020618;28;20195;-78
2023/08/27 05:45:23;;;;;;;5.77;3.37;;;;;;;;;;5026345;28;20324;-77
2023/08/27 05:47:49;;;;;;;5.93;3.40;;;;;;;;;;5013313;28;20678;-77
2023/08/27 05:50:15;;;;;;;3.93;3.37;;;;;;;;;;5026015;28;20205;-76
2023/08/27 05:52:42;;;;;;;4.50;3.20;;;;;;;;;;5024555;28;20197;-76
2023/08/27 05:55:08;;;;;;;4.00;3.33;;;;;;;;;;5026496;28;20226;-75
2023/08/27 05:57:36;;;;;;;5.43;3.40;;;;;;;;;;5006257;28;20218;-75
2023/08/27 06:00:02;;;;;;;6.13;3.60;;;;;;;;;;5024069;28;20190;-75
2023/08/27 06:02:39;;;;;;;4.70;3.13;;;;;;;;;;5015604;28;20185;-75
2023/08/27 06:05:05;;;;;;;5.23;3.47;;;;;;;;;;5022600;28;20198;-75
2023/08/27 06:07:31;;;;;;;5.30;3.20;;;;;;;;;;5022841;28;20211;-75
2023/08/27 06:09:58;;;;;;;5.80;3.40;;;;;;;;;;5023661;28;20270;-75
2023/08/27 06:12:24;;;;;;;3.93;3.30;;;;;;;;;;5027032;28;20186;-75
2023/08/27 06:14:50;;;;;;;3.67;3.20;;;;;;;;;;5024571;28;20217;-75
2023/08/27 06:17:16;;;;;;;5.73;3.50;;;;;;;;;;5028230;28;20580;-75
2023/08/27 06:19:42;;;;;;;5.07;2.90;;;;;;;;;;5006724;28;20191;-75
2023/08/27 06:22:08;;;;;;;4.17;3.33;;;;;;;;;;5023890;28;20801;-75
2023/08/27 06:24:37;;;;;;;6.17;3.43;;;;;;;;;;5023669;28;20183;-75
2023/08/27 06:27:03;;;;;;;6.83;3.40;;;;;;;;;;5021938;28;20301;-75
2023/08/27 06:29:29;;;;;;;5.50;3.30;;;;;;;;;;5020818;28;20538;-75
2023/08/27 06:31:56;;;;;;;8.67;3.73;;;;;;;;;;5027029;28;20194;-75
2023/08/27 06:34:25;;;;;;;6.40;3.20;;;;;;;;;;5026660;28;20214;-76
2023/08/27 06:36:51;;;;;;;5.83;3.57;;;;;;;;;;5024370;28;20239;-74
2023/08/27 06:39:17;;;;;;;6.73;3.87;;;;;;;;;;5024160;28;20721;-75
2023/08/27 06:41:43;;;;;;;4.47;3.50;;;;;;;;;;5005250;28;20278;-74
2023/08/27 06:44:12;;;;;;;5.33;3.50;;;;;;;;;;5026292;28;20273;-74
2023/08/27 06:46:40;;;;;;;7.13;3.50;;;;;;;;;;5020842;28;20193;-76
2023/08/27 06:49:06;;;;;;;5.33;3.87;;;;;;;;;;5024067;28;20281;-77
2023/08/27 06:51:32;;;;;;;6.73;3.80;;;;;;;;;;5004116;28;20198;-77
2023/08/27 06:53:59;;;;;;;4.27;3.70;;;;;;;;;;5009729;28;20281;-76
2023/08/27 06:56:27;;;;;;;4.97;4.07;;;;;;;;;;5010954;28;20194;-77
2023/08/27 06:58:53;;;;;;;4.93;4.40;;;;;;;;;;5016102;28;20195;-77
2023/08/27 07:01:19;;;;;;;5.70;4.57;;;;;;;;;;5018705;28;20182;-77
2023/08/27 07:03:45;;;;;;;5.83;4.60;;;;;;;;;;5026548;28;20187;-77
2023/08/27 07:06:12;;;;;;;6.07;4.57;;;;;;;;;;5006643;28;20296;-76
2023/08/27 07:08:38;;;;;;;8.50;4.80;;;;;;;;;;5025025;28;20544;-77
2023/08/27 07:11:04;;;;;;;5.87;4.73;;;;;;;;;;5015503;28;20198;-77
2023/08/27 07:13:30;;;;;;;6.47;4.97;;;;;;;;;;5018334;28;20178;-77
2023/08/27 07:15:59;;;;;;;6.30;4.80;;;;;;;;;;5006627;28;20213;-76
2023/08/27 07:18:27;;;;;;;6.63;5.00;;;;;;;;;;5020847;28;20261;-77
2023/08/27 07:20:53;;;;;;;8.17;5.77;;;;;;;;;;5024486;28;20182;-77
2023/08/27 07:23:19;;;;;;;7.90;6.00;;;;;;;;;;5026137;28;20178;-76
2023/08/27 07:25:46;;;;;;;7.70;6.57;;;;;;;;;;5027294;28;20649;-76
2023/08/27 07:28:12;;;;;;;11.53;7.80;;;;;;;;;;5063414;22;20276;-79
2023/08/27 07:30:39;;;;;;;9.63;8.73;;;;;;;;;;5029338;28;20178;-79
2023/08/27 07:33:10;;;;;;;12.00;9.73;;;;;;;;;;5029296;28;20186;-79
2023/08/27 07:35:37;;;;;;;15.47;10.30;;;;;;;;;;5047489;28;20195;-79
2023/08/27 07:38:04;;;;;;;13.27;9.37;;;;;;;;;;5012894;28;20198;-79
2023/08/27 07:40:35;;;;;;;13.23;9.83;;;;;;;;;;5027511;28;20175;-79
2023/08/27 07:43:01;;;;;;;11.40;9.47;;;;;;;;;;5024054;28;20194;-79
2023/08/27 07:45:27;;;;;;;11.13;9.90;;;;;;;;;;5025258;28;20178;-78
2023/08/27 07:47:53;;;;;;;12.97;9.77;;;;;;;;;;5019181;28;20210;-77
2023/08/27 07:50:20;;;;;;;12.50;10.27;;;;;;;;;;5030523;28;20273;-75
2023/08/27 07:52:46;;;;;;;13.20;11.80;;;;;;;;;;5012721;28;20198;-75
2023/08/27 07:55:14;;;;;;;11.83;10.37;;;;;;;;;;5012261;28;20228;-75
2023/08/27 07:57:40;;;;;;;14.70;10.97;;;;;;;;;;5027678;28;20225;-75
2023/08/27 08:00:06;;;;;;;11.80;10.60;;;;;;;;;;5028301;28;20186;-75
2023/08/27 08:02:40;;;;;;;13.83;9.73;;;;;;;;;;5022846;28;20530;-75
2023/08/27 08:05:07;;;;;;;11.33;9.67;;;;;;;;;;5027163;28;20194;-75
2023/08/27 08:07:35;;;;;;;12.40;11.10;;;;;;;;;;5026236;28;20213;-75
2023/08/27 08:10:02;;;;;;;11.27;9.80;;;;;;;;;;5027119;28;20257;-75
2023/08/27 08:12:28;;;;;;;11.53;10.33;;;;;;;;;;5028497;28;20195;-75
2023/08/27 08:14:54;;;;;;;13.50;11.10;;;;;;;;;;5030270;28;20248;-75
2023/08/27 08:17:21;;;;;;;11.97;10.77;;;;;;;;;;5042438;28;20182;-75
2023/08/27 08:19:48;;;;;;;13.67;10.10;;;;;;;;;;5030274;28;20615;-75
2023/08/27 08:22:14;;;;;;;11.33;10.03;;;;;;;;;;5010573;28;20313;-75
2023/08/27 08:24:40;;;;;;;11.97;10.03;;;;;;;;;;5027685;28;20178;-75
2023/08/27 08:27:06;;;;;;;13.77;10.57;;;;;;;;;;5029644;28;20207;-75
2023/08/27 08:29:32;;;;;;;12.43;9.90;;;;;;;;;;5012237;28;20653;-75
2023/08/27 08:32:00;;;;;;;10.77;8.90;;;;;;;;;;5028171;28;20631;-75
2023/08/27 08:34:30;;;;;;;9.23;8.10;;;;;;;;;;5028738;28;20217;-75
2023/08/27 08:36:56;;;;;;;10.93;8.80;;;;;;;;;;5027805;28;20269;-75
2023/08/27 08:39:23;;;;;;;10.27;8.10;;;;;;;;;;5031028;28;20300;-75
2023/08/27 08:41:54;;;;;;;11.20;8.70;;;;;;;;;;5029421;28;20194;-75
2023/08/27 08:44:27;;;;;;;11.70;9.33;;;;;;;;;;5026126;28;20184;-75
2023/08/27 08:46:54;;;;;;;14.27;9.40;;;;;;;;;;5029795;28;20182;-75
2023/08/27 08:49:22;;;;;;;10.27;8.73;;;;;;;;;;5024131;28;20673;-75
2023/08/27 08:51:54;;;;;;;11.63;8.60;;;;;;;;;;5028681;28;20194;-75
2023/08/27 08:54:23;;;;;;;8.63;7.70;;;;;;;;;;5026249;28;20218;-75
2023/08/27 08:56:52;;;;;;;9.40;6.50;;;;;;;;;;5023557;28;20182;-75
2023/08/27 08:59:19;;;;;;;8.93;6.27;;;;;;;;;;5029521;28;20214;-74
2023/08/27 09:01:46;;;;;;;9.40;6.10;;;;;;;;;;5041125;28;20191;-76
2023/08/27 09:04:14;;;;;;;12.83;6.43;;;;;;;;;;5029698;28;20673;-76
2023/08/27 09:06:41;;;;;;;8.43;6.00;;;;;;;;;;5029368;28;20179;-75
2023/08/27 09:09:07;;;;;;;9.20;6.40;;;;;;;;;;5029259;28;20199;-75
2023/08/27 09:11:36;;;;;;;8.23;6.23;;;;;;;;;;5025205;28;20179;-75
2023/08/27 09:14:03;;;;;;;7.77;6.00;;;;;;;;;;5025218;28;20191;-75
2023/08/27 09:16:30;;;;;;;7.87;5.57;;;;;;;;;;5011731;28;20179;-75
2023/08/27 09:18:56;;;;;;;7.97;5.70;;;;;;;;;;5027222;28;20332;-75
2023/08/27 09:21:22;;;;;;;8.93;5.97;;;;;;;;;;5027534;28;20175;-75
2023/08/27 09:23:49;;;;;;;7.23;6.40;;;;;;;;;;5030171;28;20190;-76
2023/08/27 09:26:16;;;;;;;7.53;6.07;;;;;;;;;;5028049;28;20187;-76
2023/08/27 09:28:42;;;;;;;7.37;5.80;;;;;;;;;;5025356;28;20335;-75
2023/08/27 09:31:11;;;;;;;8.77;6.00;;;;;;;;;;5027143;28;20189;-75
2023/08/27 09:33:39;;;;;;;6.03;5.43;;;;;;;;;;5020249;28;20194;-75
2023/08/27 09:36:06;;;;;;;6.60;5.70;;;;;;;;;;5026737;28;20233;-76
2023/08/27 09:38:34;;;;;;;6.03;5.30;;;;;;;;;;5025136;28;20210;-76
2023/08/27 09:41:16;;;;;;;5.20;4.70;;;;;;;;;;5035104;28;20274;-76
2023/08/27 09:43:52;;;;;;;8.20;5.27;;;;;;;;;;5028964;28;20183;-75
2023/08/27 09:46:19;;;;;;;5.77;5.17;;;;;;;;;;5028213;28;20191;-75
2023/08/27 09:48:56;;;;;;;6.37;4.83;;;;;;;;;;5025599;28;20210;-76
2023/08/27 09:51:22;;;;;;;6.60;5.30;;;;;;;;;;5027588;28;20267;-77
2023/08/27 09:53:49;;;;;;;5.70;5.10;;;;;;;;;;5033891;28;20189;-78
2023/08/27 09:56:16;;;;;;;8.37;5.10;;;;;;;;;;5039824;28;20243;-76
2023/08/27 09:58:42;;;;;;;6.33;4.87;;;;;;;;;;5019474;28;20213;-76
2023/08/27 10:01:08;;;;;;;6.40;4.67;;;;;;;;;;5034404;28;20196;-76
2023/08/27 10:03:34;;;;;;;6.50;4.90;;;;;;;;;;5027201;28;20551;-77
2023/08/27 10:06:04;;;;;;;7.93;4.37;;;;;;;;;;5030174;28;20197;-77
2023/08/27 10:08:31;;;;;;;6.23;4.80;;;;;;;;;;5024876;28;20195;-77
2023/08/27 10:11:09;;;;;;;5.23;4.30;;;;;;;;;;5028275;28;20222;-75
2023/08/27 10:13:36;;;;;;;5.30;4.30;;;;;;;;;;5026962;28;20189;-74
2023/08/27 10:16:02;;;;;;;6.17;4.03;;;;;;;;;;5025474;28;20683;-75
2023/08/27 10:18:29;;;;;;;3.60;3.23;;;;;;;;;;5028334;28;20603;-75
2023/08/27 10:20:56;;;;;;;7.40;4.57;;;;;;;;;;5029830;28;20181;-75
2023/08/27 10:23:22;;;;;;;6.70;4.13;;;;;;;;;;5017997;28;20177;-74
2023/08/27 10:25:49;;;;;;;4.37;3.80;;;;;;;;;;5044554;28;20261;-77
2023/08/27 10:28:16;;;;;;;6.57;3.90;;;;;;;;;;5027711;28;21510;-76
2023/08/27 10:30:47;;;;;;;4.67;3.40;;;;;;;;;;5026699;28;20180;-77
2023/08/27 10:33:14;;;;;;;5.47;3.60;;;;;;;;;;5009003;28;20662;-76
2023/08/27 10:35:41;;;;;;;4.10;3.30;;;;;;;;;;5024351;28;20284;-79
2023/08/27 10:38:08;;;;;;;6.30;3.63;;;;;;;;;;5026971;28;20208;-79
2023/08/27 10:40:36;;;;;;;4.40;3.57;;;;;;;;;;5026073;28;20187;-79
2023/08/27 10:43:09;;;;;;;5.27;3.93;;;;;;;;;;5025315;28;20561;-78
2023/08/27 10:45:41;;;;;;;4.90;3.23;;;;;;;;;;5026639;28;20193;-78
2023/08/27 10:48:08;;;;;;;3.47;2.80;;;;;;;;;;5036897;28;20218;-77
2023/08/27 10:50:44;;;;;;;4.00;3.00;;;;;;;;;;5025172;28;20273;-76
2023/08/27 10:53:10;;;;;;;3.23;2.80;;;;;;;;;;5036622;28;20193;-77
2023/08/27 10:55:37;;;;;;;5.63;3.03;;;;;;;;;;5028670;28;20249;-78
2023/08/27 10:58:18;;;;;;;3.67;2.90;;;;;;;;;;5029268;28;20214;-78
2023/08/27 11:00:57;;;;;;;3.30;2.60;;;;;;;;;;5028387;28;20266;-81
2023/08/27 11:03:24;;;;;;;3.53;2.60;;;;;;;;;;5026941;28;20187;-83
2023/08/27 11:06:09;;;;;;;3.03;2.40;;;;;;;;;;5027617;28;20178;-79
2023/08/27 11:08:35;;;;;;;4.07;2.40;;;;;;;;;;5024590;28;20202;-80
2023/08/27 11:11:11;;;;;;;4.50;2.37;;;;;;;;;;5028852;28;20194;-82
2023/08/27 11:13:38;;;;;;;2.20;2.00;;;;;;;;;;5011517;28;20262;-81
2023/08/27 11:16:17;;;;;;;4.37;2.30;;;;;;;;;;5028617;28;20218;-80
2023/08/27 11:18:50;;;;;;;5.67;2.30;;;;;;;;;;5020587;28;20206;-82
2023/08/27 11:21:20;;;;;;;3.17;2.10;;;;;;;;;;5011444;28;20187;-81
2023/08/27 11:24:06;;;;;;;5.50;2.30;;;;;;;;;;5042480;28;20954;-80
2023/08/27 11:26:33;;;;;;;3.03;2.20;;;;;;;;;;5021915;28;20225;-81
2023/08/27 11:28:59;;;;;;;3.00;2.43;;;;;;;;;;5019686;28;20315;-81
2023/08/27 11:31:26;;;;;;;3.57;2.20;;;;;;;;;;5021148;28;20193;-81
2023/08/27 11:33:53;;;;;;;2.70;2.10;;;;;;;;;;5020865;28;20200;-80
2023/08/27 11:36:19;;;;;;;2.50;2.30;;;;;;;;;;5025464;28;20234;-82
2023/08/27 11:38:46;;;;;;;3.67;2.47;;;;;;;;;;5008136;28;20317;-80
2023/08/27 11:41:12;;;;;;;2.30;2.10;;;;;;;;;;5006150;28;20190;-79
2023/08/27 11:43:38;;;;;;;4.43;2.37;;;;;;;;;;5025060;28;20182;-75
2023/08/27 11:46:04;;;;;;;3.37;2.40;;;;;;;;;;5021487;28;20190;-76
2023/08/27 11:48:30;;;;;;;2.90;2.70;;;;;;;;;;5022929;28;20292;-76
2023/08/27 11:50:57;;;;;;;4.30;2.50;;;;;;;;;;5020911;28;20192;-76
2023/08/27 11:53:23;;;;;;;2.50;2.30;;;;;;;;;;5022007;28;20247;-76
2023/08/27 11:55:50;;;;;;;3.07;2.47;;;;;;;;;;5026341;28;20694;-77
2023/08/27 11:58:17;;;;;;;2.57;2.37;;;;;;;;;;5021721;28;20204;-76
2023/08/27 12:00:48;;;;;;;4.13;2.70;;;;;;;;;;5019352;28;20706;-80
2023/08/27 12:03:15;;;;;;;3.10;2.80;;;;;;;;;;5031170;28;20171;-77
2023/08/27 12:05:42;;;;;;;5.10;3.10;;;;;;;;;;5025862;28;20188;-76
2023/08/27 12:08:08;;;;;;;5.37;3.70;;;;;;;;;;5047662;28;20245;-76
2023/08/27 12:10:42;;;;;;;5.63;3.90;;;;;;;;;;5031745;28;20229;-76
2023/08/27 12:13:09;;;;;;;7.20;4.33;;;;;;;;;;5031945;28;20186;-76
2023/08/27 12:15:36;;;;;;;3.83;3.33;;;;;;;;;;5030501;28;20210;-76
2023/08/27 12:18:07;;;;;;;4.70;3.33;;;;;;;;;;5031270;28;20190;-79
2023/08/27 12:20:34;;;;;;;4.60;3.90;;;;;;;;;;5025279;28;20195;-75
2023/08/27 12:23:10;;;;;;;6.10;3.83;;;;;;;;;;5026059;28;20190;-79
2023/08/27 12:25:45;;;;;;;5.00;3.60;;;;;;;;;;5026931;28;20178;-78
2023/08/27 12:28:12;;;;;;;4.37;3.07;;;;;;;;;;5034967;28;20245;-77
2023/08/27 12:30:38;;;;;;;3.40;3.10;;;;;;;;;;5029142;28;20194;-74
2023/08/27 12:33:05;;;;;;;4.20;3.13;;;;;;;;;;5027943;28;20187;-74
2023/08/27 12:35:31;;;;;;;3.90;3.00;;;;;;;;;;5023948;28;20264;-74
2023/08/27 12:37:57;;;;;;;3.57;2.73;;;;;;;;;;5028684;28;20209;-73
2023/08/27 12:40:23;;;;;;;3.70;3.10;;;;;;;;;;5026872;28;20260;-73
2023/08/27 12:42:49;;;;;;;4.73;3.23;;;;;;;;;;5026620;28;20180;-73
2023/08/27 12:45:16;;;;;;;3.83;3.00;;;;;;;;;;5025492;28;20194;-74
2023/08/27 12:47:42;;;;;;;3.03;2.70;;;;;;;;;;5026837;28;20206;-74
2023/08/27 12:50:09;;;;;;;3.57;3.27;;;;;;;;;;5025475;28;20599;-74
2023/08/27 12:52:35;;;;;;;3.20;2.73;;;;;;;;;;5024348;28;20225;-73
2023/08/27 12:55:02;;;;;;;3.97;2.70;;;;;;;;;;5025345;28;20261;-73
2023/08/27 12:57:29;;;;;;;3.13;2.40;;;;;;;;;;5030365;28;20592;-75
2023/08/27 12:59:55;;;;;;;4.23;3.00;;;;;;;;;;5024142;28;20191;-74
2023/08/27 13:02:21;;;;;;;3.10;2.73;;;;;;;;;;5031151;28;20175;-76
2023/08/27 13:04:47;;;;;;;6.50;2.90;;;;;;;;;;5028293;28;20180;-74
2023/08/27 13:07:14;;;;;;;5.20;2.60;;;;;;;;;;5026521;28;20193;-74
2023/08/27 13:09:40;;;;;;;3.63;2.50;;;;;;;;;;5026462;28;20274;-74
2023/08/27 13:12:07;;;;;;;3.77;2.70;;;;;;;;;;5028516;28;20179;-74
2023/08/27 13:14:36;;;;;;;2.83;2.30;;;;;;;;;;5027124;28;20204;-74
2023/08/27 13:17:02;;;;;;;2.90;2.30;;;;;;;;;;5028544;28;20298;-74
2023/08/27 13:19:28;;;;;;;2.93;2.37;;;;;;;;;;5026086;28;20201;-76
2023/08/27 13:21:55;;;;;;;3.97;2.80;;;;;;;;;;5026068;28;20189;-75
2023/08/27 13:24:21;;;;;;;3.13;2.87;;;;;;;;;;5024157;28;20187;-75
2023/08/27 13:26:47;;;;;;;5.23;2.80;;;;;;;;;;5024974;28;20656;-75
2023/08/27 13:29:13;;;;;;;4.43;2.90;;;;;;;;;;5026999;28;20215;-75
2023/08/27 13:31:39;;;;;;;2.93;2.57;;;;;;;;;;5023063;28;20177;-75
2023/08/27 13:34:06;;;;;;;3.70;2.43;;;;;;;;;;5025647;28;20188;-74
2023/08/27 13:36:32;;;;;;;2.37;2.17;;;;;;;;;;5038733;23;20220;-77
2023/08/27 13:38:58;;;;;;;3.50;2.33;;;;;;;;;;5028612;28;20229;-78
2023/08/27 13:41:25;;;;;;;3.10;2.20;;;;;;;;;;5028235;28;20194;-80
2023/08/27 13:43:51;;;;;;;2.53;2.30;;;;;;;;;;4997146;28;20203;-78
2023/08/27 13:46:17;;;;;;;3.30;2.10;;;;;;;;;;5011305;28;20754;-78
2023/08/27 13:48:43;;;;;;;2.43;2.13;;;;;;;;;;5005574;28;20191;-78
2023/08/27 13:51:10;;;;;;;3.80;2.50;;;;;;;;;;5008320;28;20214;-78
2023/08/27 13:53:36;;;;;;;2.47;2.17;;;;;;;;;;5005227;28;20195;-78
2023/08/27 13:56:02;;;;;;;2.57;2.27;;;;;;;;;;5001861;28;20215;-78
2023/08/27 13:58:29;;;;;;;2.57;2.10;;;;;;;;;;5007813;28;20254;-77
2023/08/27 14:00:56;;;;;;;3.43;2.40;;;;;;;;;;4986664;28;20750;-78
2023/08/27 14:03:23;;;;;;;3.60;2.10;;;;;;;;;;5005505;28;20227;-78
2023/08/27 14:05:49;;;;;;;3.00;2.13;;;;;;;;;;4976244;28;20192;-78
2023/08/27 14:08:23;;;;;;;2.70;2.33;;;;;;;;;;5008725;28;20195;-78
2023/08/27 14:10:49;;;;;;;3.80;2.60;;;;;;;;;;5005298;28;20204;-78
2023/08/27 14:13:15;;;;;;;2.40;2.17;;;;;;;;;;4988691;28;20216;-78
2023/08/27 14:15:41;;;;;;;3.43;2.60;;;;;;;;;;4992805;28;20209;-78
2023/08/27 14:18:08;;;;;;;3.60;2.30;;;;;;;;;;4994416;28;20192;-78
2023/08/27 14:20:34;;;;;;;5.03;2.30;;;;;;;;;;5007494;28;20226;-78
2023/08/27 14:23:01;;;;;;;5.57;2.50;;;;;;;;;;5010569;28;20217;-77
2023/08/27 14:25:28;;;;;;;4.73;2.50;;;;;;;;;;4973343;28;20209;-78
2023/08/27 14:27:54;;;;;;;3.03;2.60;;;;;;;;;;5009574;28;20830;-78
2023/08/27 14:30:20;;;;;;;2.50;2.30;;;;;;;;;;4991436;28;20189;-78
2023/08/27 14:32:46;;;;;;;2.57;2.30;;;;;;;;;;5007054;28;20229;-79
2023/08/27 14:35:14;;;;;;;2.60;2.40;;;;;;;;;;4995943;28;20217;-78
2023/08/27 14:37:40;;;;;;;3.17;2.50;;;;;;;;;;5008985;28;20201;-78
2023/08/27 14:40:07;;;;;;;3.13;2.30;;;;;;;;;;5006550;28;20182;-78
2023/08/27 14:42:36;;;;;;;3.70;2.40;;;;;;;;;;5008632;28;20199;-78